sensor_id;sensor_type;location;lat;lon;timestamp;temperature;humidity
69503;SHT31;56704;54.242;12.442;2022-09-21T00:01:40;9.45;89.52
69503;SHT31;56704;54.242;12.442;2022-09-21T00:04:06;9.43;89.56
69503;SHT31;56704;54.242;12.442;2022-09-21T00:06:34;9.36;89.50
69503;SHT31;56704;54.242;12.442;2022-09-21T00:09:03;9.32;89.41
69503;SHT31;56704;54.242;12.442;2022-09-21T00:11:31;9.24;89.91
69503;SHT31;56704;54.242;12.442;2022-09-21T00:14:00;9.20;89.55
69503;SHT31;56704;54.242;12.442;2022-09-21T00:16:28;9.10;89.52
69503;SHT31;56704;54.242;12.442;2022-09-21T00:18:56;9.04;89.81
69503;SHT31;56704;54.242;12.442;2022-09-21T00:21:22;9.00;89.90
69503;SHT31;56704;54.242;12.442;2022-09-21T00:23:50;8.96;89.80
69503;SHT31;56704;54.242;12.442;2022-09-21T00:26:20;8.85;90.18
69503;SHT31;56704;54.242;12.442;2022-09-21T00:28:51;8.83;90.06
69503;SHT31;56704;54.242;12.442;2022-09-21T00:31:19;8.81;89.96
69503;SHT31;56704;54.242;12.442;2022-09-21T00:33:45;8.74;89.99
69503;SHT31;56704;54.242;12.442;2022-09-21T00:36:13;8.66;90.04
69503;SHT31;56704;54.242;12.442;2022-09-21T00:38:41;8.59;90.22
69503;SHT31;56704;54.242;12.442;2022-09-21T00:41:11;8.54;90.42
69503;SHT31;56704;54.242;12.442;2022-09-21T00:43:43;8.52;90.56
69503;SHT31;56704;54.242;12.442;2022-09-21T00:46:14;8.50;90.64
69503;SHT31;56704;54.242;12.442;2022-09-21T00:48:41;8.45;90.77
69503;SHT31;56704;54.242;12.442;2022-09-21T00:51:09;8.46;90.86
69503;SHT31;56704;54.242;12.442;2022-09-21T00:53:36;8.46;91.11
69503;SHT31;56704;54.242;12.442;2022-09-21T00:56:04;8.45;91.13
69503;SHT31;56704;54.242;12.442;2022-09-21T00:58:36;8.40;91.13
69503;SHT31;56704;54.242;12.442;2022-09-21T01:01:05;8.39;91.17
69503;SHT31;56704;54.242;12.442;2022-09-21T01:03:31;8.35;91.25
69503;SHT31;56704;54.242;12.442;2022-09-21T01:05:58;8.35;91.32
69503;SHT31;56704;54.242;12.442;2022-09-21T01:08:25;8.29;91.29
69503;SHT31;56704;54.242;12.442;2022-09-21T01:11:10;8.25;91.26
69503;SHT31;56704;54.242;12.442;2022-09-21T01:13:49;8.24;91.48
69503;SHT31;56704;54.242;12.442;2022-09-21T01:16:19;8.19;91.63
69503;SHT31;56704;54.242;12.442;2022-09-21T01:18:55;8.18;91.59
69503;SHT31;56704;54.242;12.442;2022-09-21T01:21:25;8.15;91.57
69503;SHT31;56704;54.242;12.442;2022-09-21T01:27:15;8.11;91.62
69503;SHT31;56704;54.242;12.442;2022-09-21T01:29:50;8.09;91.65
69503;SHT31;56704;54.242;12.442;2022-09-21T01:32:21;8.06;91.58
69503;SHT31;56704;54.242;12.442;2022-09-21T01:34:52;8.05;91.75
69503;SHT31;56704;54.242;12.442;2022-09-21T01:37:23;8.03;91.61
69503;SHT31;56704;54.242;12.442;2022-09-21T01:40:03;7.99;91.53
69503;SHT31;56704;54.242;12.442;2022-09-21T01:42:32;7.94;91.58
69503;SHT31;56704;54.242;12.442;2022-09-21T01:45:02;7.92;91.61
69503;SHT31;56704;54.242;12.442;2022-09-21T01:47:32;7.94;91.71
69503;SHT31;56704;54.242;12.442;2022-09-21T01:50:00;7.91;91.67
69503;SHT31;56704;54.242;12.442;2022-09-21T01:52:32;7.88;91.75
69503;SHT31;56704;54.242;12.442;2022-09-21T01:55:04;7.90;91.72
69503;SHT31;56704;54.242;12.442;2022-09-21T01:57:37;7.84;91.64
69503;SHT31;56704;54.242;12.442;2022-09-21T02:00:08;7.82;91.56
69503;SHT31;56704;54.242;12.442;2022-09-21T02:02:38;7.80;91.64
69503;SHT31;56704;54.242;12.442;2022-09-21T02:05:07;7.77;91.60
69503;SHT31;56704;54.242;12.442;2022-09-21T02:07:34;7.71;91.59
69503;SHT31;56704;54.242;12.442;2022-09-21T02:10:02;7.71;91.49
69503;SHT31;56704;54.242;12.442;2022-09-21T02:12:29;7.64;91.50
69503;SHT31;56704;54.242;12.442;2022-09-21T02:14:58;7.63;91.47
69503;SHT31;56704;54.242;12.442;2022-09-21T02:17:35;7.59;91.37
69503;SHT31;56704;54.242;12.442;2022-09-21T02:20:13;7.54;91.35
69503;SHT31;56704;54.242;12.442;2022-09-21T02:22:52;7.51;91.27
69503;SHT31;56704;54.242;12.442;2022-09-21T02:25:28;7.49;91.18
69503;SHT31;56704;54.242;12.442;2022-09-21T02:28:01;7.44;91.18
69503;SHT31;56704;54.242;12.442;2022-09-21T02:30:32;7.39;91.14
69503;SHT31;56704;54.242;12.442;2022-09-21T02:33:07;7.37;91.20
69503;SHT31;56704;54.242;12.442;2022-09-21T02:35:38;7.37;91.21
69503;SHT31;56704;54.242;12.442;2022-09-21T02:38:10;7.30;91.23
69503;SHT31;56704;54.242;12.442;2022-09-21T02:40:46;7.27;91.23
69503;SHT31;56704;54.242;12.442;2022-09-21T02:43:20;7.26;91.13
69503;SHT31;56704;54.242;12.442;2022-09-21T02:45:51;7.20;91.13
69503;SHT31;56704;54.242;12.442;2022-09-21T02:48:25;7.19;91.18
69503;SHT31;56704;54.242;12.442;2022-09-21T02:50:57;7.16;91.17
69503;SHT31;56704;54.242;12.442;2022-09-21T02:53:27;7.16;91.25
69503;SHT31;56704;54.242;12.442;2022-09-21T02:55:59;7.15;91.29
69503;SHT31;56704;54.242;12.442;2022-09-21T02:58:28;7.15;91.39
69503;SHT31;56704;54.242;12.442;2022-09-21T03:00:56;7.15;91.55
69503;SHT31;56704;54.242;12.442;2022-09-21T03:03:25;7.13;91.63
69503;SHT31;56704;54.242;12.442;2022-09-21T03:05:53;7.12;91.38
69503;SHT31;56704;54.242;12.442;2022-09-21T03:08:20;7.12;91.35
69503;SHT31;56704;54.242;12.442;2022-09-21T03:10:46;7.06;91.40
69503;SHT31;56704;54.242;12.442;2022-09-21T03:13:15;7.03;91.44
69503;SHT31;56704;54.242;12.442;2022-09-21T03:15:42;7.03;91.43
69503;SHT31;56704;54.242;12.442;2022-09-21T03:18:10;7.00;91.38
69503;SHT31;56704;54.242;12.442;2022-09-21T03:20:39;7.00;91.34
69503;SHT31;56704;54.242;12.442;2022-09-21T03:23:06;6.96;91.34
69503;SHT31;56704;54.242;12.442;2022-09-21T03:25:33;6.95;91.28
69503;SHT31;56704;54.242;12.442;2022-09-21T03:28:01;6.95;91.30
69503;SHT31;56704;54.242;12.442;2022-09-21T03:30:27;6.95;91.29
69503;SHT31;56704;54.242;12.442;2022-09-21T03:32:54;6.96;91.25
69503;SHT31;56704;54.242;12.442;2022-09-21T03:35:22;6.99;91.20
69503;SHT31;56704;54.242;12.442;2022-09-21T03:37:50;7.02;91.25
69503;SHT31;56704;54.242;12.442;2022-09-21T03:40:19;7.02;91.26
69503;SHT31;56704;54.242;12.442;2022-09-21T03:42:46;7.06;90.96
69503;SHT31;56704;54.242;12.442;2022-09-21T03:45:12;7.05;90.92
69503;SHT31;56704;54.242;12.442;2022-09-21T03:47:39;7.00;90.90
69503;SHT31;56704;54.242;12.442;2022-09-21T03:50:07;6.96;90.83
69503;SHT31;56704;54.242;12.442;2022-09-21T03:52:33;6.95;90.84
69503;SHT31;56704;54.242;12.442;2022-09-21T03:55:02;6.89;91.03
69503;SHT31;56704;54.242;12.442;2022-09-21T03:57:30;6.88;91.10
69503;SHT31;56704;54.242;12.442;2022-09-21T03:59:57;6.92;91.29
69503;SHT31;56704;54.242;12.442;2022-09-21T04:02:23;6.89;91.35
69503;SHT31;56704;54.242;12.442;2022-09-21T04:04:50;6.84;91.23
69503;SHT31;56704;54.242;12.442;2022-09-21T04:07:16;6.84;91.20
69503;SHT31;56704;54.242;12.442;2022-09-21T04:09:43;6.81;91.08
69503;SHT31;56704;54.242;12.442;2022-09-21T04:12:11;6.75;91.17
69503;SHT31;56704;54.242;12.442;2022-09-21T04:14:37;6.72;91.34
69503;SHT31;56704;54.242;12.442;2022-09-21T04:17:04;6.69;91.47
69503;SHT31;56704;54.242;12.442;2022-09-21T04:19:30;6.69;91.51
69503;SHT31;56704;54.242;12.442;2022-09-21T04:21:57;6.68;91.60
69503;SHT31;56704;54.242;12.442;2022-09-21T04:24:23;6.68;91.65
69503;SHT31;56704;54.242;12.442;2022-09-21T04:26:51;6.67;91.45
69503;SHT31;56704;54.242;12.442;2022-09-21T04:29:19;6.67;91.67
69503;SHT31;56704;54.242;12.442;2022-09-21T04:31:45;6.65;91.82
69503;SHT31;56704;54.242;12.442;2022-09-21T04:34:12;6.68;91.88
69503;SHT31;56704;54.242;12.442;2022-09-21T04:36:39;6.65;91.93
69503;SHT31;56704;54.242;12.442;2022-09-21T04:39:05;6.64;91.55
69503;SHT31;56704;54.242;12.442;2022-09-21T04:41:32;6.61;91.53
69503;SHT31;56704;54.242;12.442;2022-09-21T04:43:58;6.55;91.64
69503;SHT31;56704;54.242;12.442;2022-09-21T04:46:26;6.57;91.92
69503;SHT31;56704;54.242;12.442;2022-09-21T04:48:53;6.58;92.02
69503;SHT31;56704;54.242;12.442;2022-09-21T04:51:19;6.58;92.10
69503;SHT31;56704;54.242;12.442;2022-09-21T04:53:46;6.58;92.08
69503;SHT31;56704;54.242;12.442;2022-09-21T04:56:14;6.61;92.07
69503;SHT31;56704;54.242;12.442;2022-09-21T04:58:41;6.61;92.12
69503;SHT31;56704;54.242;12.442;2022-09-21T05:01:07;6.60;92.02
69503;SHT31;56704;54.242;12.442;2022-09-21T05:03:35;6.58;92.03
69503;SHT31;56704;54.242;12.442;2022-09-21T05:06:02;6.58;91.88
69503;SHT31;56704;54.242;12.442;2022-09-21T05:08:29;6.55;91.90
69503;SHT31;56704;54.242;12.442;2022-09-21T05:11:15;6.54;92.02
69503;SHT31;56704;54.242;12.442;2022-09-21T05:13:42;6.55;91.82
69503;SHT31;56704;54.242;12.442;2022-09-21T05:16:09;6.54;91.74
69503;SHT31;56704;54.242;12.442;2022-09-21T05:18:37;6.58;91.66
69503;SHT31;56704;54.242;12.442;2022-09-21T05:21:04;6.54;91.64
69503;SHT31;56704;54.242;12.442;2022-09-21T05:23:32;6.55;91.64
69503;SHT31;56704;54.242;12.442;2022-09-21T05:25:59;6.55;91.69
69503;SHT31;56704;54.242;12.442;2022-09-21T05:28:26;6.57;91.67
69503;SHT31;56704;54.242;12.442;2022-09-21T05:30:57;6.55;91.79
69503;SHT31;56704;54.242;12.442;2022-09-21T05:33:27;6.63;91.86
69503;SHT31;56704;54.242;12.442;2022-09-21T05:36:01;6.71;92.07
69503;SHT31;56704;54.242;12.442;2022-09-21T05:38:30;6.81;92.23
69503;SHT31;56704;54.242;12.442;2022-09-21T05:40:57;6.91;92.27
69503;SHT31;56704;54.242;12.442;2022-09-21T05:43:25;7.00;92.37
69503;SHT31;56704;54.242;12.442;2022-09-21T05:45:55;7.10;92.39
69503;SHT31;56704;54.242;12.442;2022-09-21T05:48:28;7.18;92.46
69503;SHT31;56704;54.242;12.442;2022-09-21T05:51:02;7.27;92.54
69503;SHT31;56704;54.242;12.442;2022-09-21T05:53:39;7.36;92.40
69503;SHT31;56704;54.242;12.442;2022-09-21T05:56:12;7.43;92.41
69503;SHT31;56704;54.242;12.442;2022-09-21T05:58:46;7.47;92.25
69503;SHT31;56704;54.242;12.442;2022-09-21T06:01:28;7.57;92.18
69503;SHT31;56704;54.242;12.442;2022-09-21T06:04:01;7.69;92.37
69503;SHT31;56704;54.242;12.442;2022-09-21T06:06:29;7.80;92.12
69503;SHT31;56704;54.242;12.442;2022-09-21T06:08:56;7.88;92.39
69503;SHT31;56704;54.242;12.442;2022-09-21T06:11:22;7.99;92.13
69503;SHT31;56704;54.242;12.442;2022-09-21T06:13:48;8.09;92.31
69503;SHT31;56704;54.242;12.442;2022-09-21T06:16:15;8.24;92.28
69503;SHT31;56704;54.242;12.442;2022-09-21T06:18:42;8.35;92.03
69503;SHT31;56704;54.242;12.442;2022-09-21T06:21:08;8.50;92.19
69503;SHT31;56704;54.242;12.442;2022-09-21T06:23:36;8.63;92.09
69503;SHT31;56704;54.242;12.442;2022-09-21T06:26:03;8.84;92.11
69503;SHT31;56704;54.242;12.442;2022-09-21T06:28:30;8.97;91.92
69503;SHT31;56704;54.242;12.442;2022-09-21T06:30:57;9.11;91.73
69503;SHT31;56704;54.242;12.442;2022-09-21T06:33:24;9.28;91.77
69503;SHT31;56704;54.242;12.442;2022-09-21T06:35:51;9.45;91.54
69503;SHT31;56704;54.242;12.442;2022-09-21T06:38:18;9.68;91.56
69503;SHT31;56704;54.242;12.442;2022-09-21T06:40:46;9.93;91.44
69503;SHT31;56704;54.242;12.442;2022-09-21T06:43:13;10.20;91.37
69503;SHT31;56704;54.242;12.442;2022-09-21T06:45:39;10.45;91.20
69503;SHT31;56704;54.242;12.442;2022-09-21T06:48:06;10.69;91.17
69503;SHT31;56704;54.242;12.442;2022-09-21T06:50:33;10.93;90.83
69503;SHT31;56704;54.242;12.442;2022-09-21T06:52:59;11.16;90.86
69503;SHT31;56704;54.242;12.442;2022-09-21T06:55:26;11.44;90.84
69503;SHT31;56704;54.242;12.442;2022-09-21T06:57:59;11.70;90.45
69503;SHT31;56704;54.242;12.442;2022-09-21T07:00:27;11.98;90.18
69503;SHT31;56704;54.242;12.442;2022-09-21T07:02:53;12.36;89.85
69503;SHT31;56704;54.242;12.442;2022-09-21T07:05:19;12.56;89.22
69503;SHT31;56704;54.242;12.442;2022-09-21T07:07:46;12.86;89.25
69503;SHT31;56704;54.242;12.442;2022-09-21T07:10:12;13.15;88.79
69503;SHT31;56704;54.242;12.442;2022-09-21T07:12:39;13.38;88.20
69503;SHT31;56704;54.242;12.442;2022-09-21T07:15:08;13.75;87.03
69503;SHT31;56704;54.242;12.442;2022-09-21T07:17:37;14.02;86.44
69503;SHT31;56704;54.242;12.442;2022-09-21T07:20:06;14.42;85.48
69503;SHT31;56704;54.242;12.442;2022-09-21T07:22:33;14.71;83.26
69503;SHT31;56704;54.242;12.442;2022-09-21T07:25:00;14.85;83.80
69503;SHT31;56704;54.242;12.442;2022-09-21T07:27:28;15.18;82.28
69503;SHT31;56704;54.242;12.442;2022-09-21T07:29:55;15.46;81.55
69503;SHT31;56704;54.242;12.442;2022-09-21T07:32:23;15.63;81.13
69503;SHT31;56704;54.242;12.442;2022-09-21T07:34:50;15.86;80.24
69503;SHT31;56704;54.242;12.442;2022-09-21T07:37:20;15.91;80.36
69503;SHT31;56704;54.242;12.442;2022-09-21T07:39:48;16.24;78.31
69503;SHT31;56704;54.242;12.442;2022-09-21T07:42:14;16.35;76.67
69503;SHT31;56704;54.242;12.442;2022-09-21T07:44:42;16.49;76.46
69503;SHT31;56704;54.242;12.442;2022-09-21T07:47:08;16.55;75.30
69503;SHT31;56704;54.242;12.442;2022-09-21T07:49:38;16.60;75.14
69503;SHT31;56704;54.242;12.442;2022-09-21T07:52:05;16.72;74.52
69503;SHT31;56704;54.242;12.442;2022-09-21T07:54:32;16.83;74.70
69503;SHT31;56704;54.242;12.442;2022-09-21T07:56:59;16.97;74.26
69503;SHT31;56704;54.242;12.442;2022-09-21T07:59:43;17.26;73.89
69503;SHT31;56704;54.242;12.442;2022-09-21T08:02:09;17.45;71.66
69503;SHT31;56704;54.242;12.442;2022-09-21T08:04:36;17.64;71.89
69503;SHT31;56704;54.242;12.442;2022-09-21T08:07:04;17.82;70.70
69503;SHT31;56704;54.242;12.442;2022-09-21T08:09:31;17.96;69.73
69503;SHT31;56704;54.242;12.442;2022-09-21T08:11:57;18.00;68.53
69503;SHT31;56704;54.242;12.442;2022-09-21T08:14:25;18.12;68.13
69503;SHT31;56704;54.242;12.442;2022-09-21T08:16:53;17.95;67.70
69503;SHT31;56704;54.242;12.442;2022-09-21T08:19:20;17.95;67.02
69503;SHT31;56704;54.242;12.442;2022-09-21T08:21:49;17.57;66.82
69503;SHT31;56704;54.242;12.442;2022-09-21T08:24:18;17.27;68.72
69503;SHT31;56704;54.242;12.442;2022-09-21T08:26:45;17.26;69.27
69503;SHT31;56704;54.242;12.442;2022-09-21T08:29:12;17.11;67.73
69503;SHT31;56704;54.242;12.442;2022-09-21T08:31:39;16.87;67.73
69503;SHT31;56704;54.242;12.442;2022-09-21T08:34:05;16.56;69.42
69503;SHT31;56704;54.242;12.442;2022-09-21T08:36:32;16.41;69.64
69503;SHT31;56704;54.242;12.442;2022-09-21T08:38:58;16.26;70.31
69503;SHT31;56704;54.242;12.442;2022-09-21T08:41:41;16.17;71.04
69503;SHT31;56704;54.242;12.442;2022-09-21T08:44:15;16.05;70.70
69503;SHT31;56704;54.242;12.442;2022-09-21T08:46:45;16.00;70.44
69503;SHT31;56704;54.242;12.442;2022-09-21T08:49:15;16.01;71.29
69503;SHT31;56704;54.242;12.442;2022-09-21T08:51:49;15.98;69.61
69503;SHT31;56704;54.242;12.442;2022-09-21T08:54:21;16.02;70.87
69503;SHT31;56704;54.242;12.442;2022-09-21T08:56:50;16.01;67.83
69503;SHT31;56704;54.242;12.442;2022-09-21T08:59:17;15.96;66.50
69503;SHT31;56704;54.242;12.442;2022-09-21T09:01:52;15.90;67.82
69503;SHT31;56704;54.242;12.442;2022-09-21T09:04:29;15.87;69.07
69503;SHT31;56704;54.242;12.442;2022-09-21T09:07:12;16.04;68.84
69503;SHT31;56704;54.242;12.442;2022-09-21T09:09:55;16.14;68.14
69503;SHT31;56704;54.242;12.442;2022-09-21T09:12:40;16.48;66.70
69503;SHT31;56704;54.242;12.442;2022-09-21T09:15:23;16.51;65.92
69503;SHT31;56704;54.242;12.442;2022-09-21T09:17:57;16.70;67.00
69503;SHT31;56704;54.242;12.442;2022-09-21T09:20:28;16.75;67.05
69503;SHT31;56704;54.242;12.442;2022-09-21T09:23:03;16.81;67.39
69503;SHT31;56704;54.242;12.442;2022-09-21T09:25:34;17.03;67.43
69503;SHT31;56704;54.242;12.442;2022-09-21T09:28:13;17.08;67.25
69503;SHT31;56704;54.242;12.442;2022-09-21T09:30:41;17.02;66.99
69503;SHT31;56704;54.242;12.442;2022-09-21T09:33:14;16.91;65.46
69503;SHT31;56704;54.242;12.442;2022-09-21T09:35:45;16.93;65.34
69503;SHT31;56704;54.242;12.442;2022-09-21T09:38:18;16.93;65.74
69503;SHT31;56704;54.242;12.442;2022-09-21T09:41:03;17.17;66.59
69503;SHT31;56704;54.242;12.442;2022-09-21T09:43:42;17.52;65.63
69503;SHT31;56704;54.242;12.442;2022-09-21T09:46:17;17.61;64.72
69503;SHT31;56704;54.242;12.442;2022-09-21T09:49:05;17.99;64.48
69503;SHT31;56704;54.242;12.442;2022-09-21T09:51:34;18.19;63.48
69503;SHT31;56704;54.242;12.442;2022-09-21T09:54:01;17.99;62.98
69503;SHT31;56704;54.242;12.442;2022-09-21T09:56:32;18.13;61.15
69503;SHT31;56704;54.242;12.442;2022-09-21T09:59:02;18.29;60.91
69503;SHT31;56704;54.242;12.442;2022-09-21T10:01:39;18.46;60.61
69503;SHT31;56704;54.242;12.442;2022-09-21T10:04:08;18.48;61.04
69503;SHT31;56704;54.242;12.442;2022-09-21T10:06:35;18.48;62.62
69503;SHT31;56704;54.242;12.442;2022-09-21T10:09:17;18.27;61.65
69503;SHT31;56704;54.242;12.442;2022-09-21T10:11:45;18.17;63.71
69503;SHT31;56704;54.242;12.442;2022-09-21T10:14:17;18.43;64.66
69503;SHT31;56704;54.242;12.442;2022-09-21T10:16:44;18.74;63.77
69503;SHT31;56704;54.242;12.442;2022-09-21T10:19:16;19.04;62.66
69503;SHT31;56704;54.242;12.442;2022-09-21T10:21:44;19.08;62.05
69503;SHT31;56704;54.242;12.442;2022-09-21T10:24:19;19.28;62.73
69503;SHT31;56704;54.242;12.442;2022-09-21T10:26:48;19.47;60.49
69503;SHT31;56704;54.242;12.442;2022-09-21T10:29:30;19.84;59.89
69503;SHT31;56704;54.242;12.442;2022-09-21T10:31:59;19.63;59.86
69503;SHT31;56704;54.242;12.442;2022-09-21T10:34:28;19.52;60.86
69503;SHT31;56704;54.242;12.442;2022-09-21T10:36:57;19.83;60.35
69503;SHT31;56704;54.242;12.442;2022-09-21T10:39:27;19.39;60.26
69503;SHT31;56704;54.242;12.442;2022-09-21T10:41:57;18.85;61.33
69503;SHT31;56704;54.242;12.442;2022-09-21T10:44:35;18.44;61.22
69503;SHT31;56704;54.242;12.442;2022-09-21T10:47:14;18.74;61.85
69503;SHT31;56704;54.242;12.442;2022-09-21T10:49:43;19.09;60.38
69503;SHT31;56704;54.242;12.442;2022-09-21T10:52:11;19.46;60.86
69503;SHT31;56704;54.242;12.442;2022-09-21T10:54:38;19.30;60.20
69503;SHT31;56704;54.242;12.442;2022-09-21T10:57:08;19.28;60.63
69503;SHT31;56704;54.242;12.442;2022-09-21T10:59:37;19.49;59.93
69503;SHT31;56704;54.242;12.442;2022-09-21T11:02:23;19.74;59.59
69503;SHT31;56704;54.242;12.442;2022-09-21T11:04:53;19.94;58.41
69503;SHT31;56704;54.242;12.442;2022-09-21T11:07:26;20.18;57.50
69503;SHT31;56704;54.242;12.442;2022-09-21T11:10:00;19.96;56.37
69503;SHT31;56704;54.242;12.442;2022-09-21T11:12:38;19.43;57.16
69503;SHT31;56704;54.242;12.442;2022-09-21T11:15:21;19.59;59.14
69503;SHT31;56704;54.242;12.442;2022-09-21T11:17:54;19.78;56.53
69503;SHT31;56704;54.242;12.442;2022-09-21T11:20:29;19.86;56.95
69503;SHT31;56704;54.242;12.442;2022-09-21T11:23:02;19.73;55.90
69503;SHT31;56704;54.242;12.442;2022-09-21T11:25:34;19.74;56.38
69503;SHT31;56704;54.242;12.442;2022-09-21T11:28:08;19.84;55.32
69503;SHT31;56704;54.242;12.442;2022-09-21T11:30:49;19.83;56.73
69503;SHT31;56704;54.242;12.442;2022-09-21T11:33:26;19.93;55.92
69503;SHT31;56704;54.242;12.442;2022-09-21T11:36:02;20.17;55.09
69503;SHT31;56704;54.242;12.442;2022-09-21T11:38:39;19.97;53.83
69503;SHT31;56704;54.242;12.442;2022-09-21T11:41:30;19.93;54.24
69503;SHT31;56704;54.242;12.442;2022-09-21T11:44:24;20.24;53.39
69503;SHT31;56704;54.242;12.442;2022-09-21T11:47:02;20.24;55.40
69503;SHT31;56704;54.242;12.442;2022-09-21T11:49:44;20.80;54.30
69503;SHT31;56704;54.242;12.442;2022-09-21T11:52:29;20.95;51.76
69503;SHT31;56704;54.242;12.442;2022-09-21T11:55:07;20.93;51.66
69503;SHT31;56704;54.242;12.442;2022-09-21T11:57:41;21.04;52.28
69503;SHT31;56704;54.242;12.442;2022-09-21T12:00:14;21.04;51.38
69503;SHT31;56704;54.242;12.442;2022-09-21T12:03:19;21.00;49.24
69503;SHT31;56704;54.242;12.442;2022-09-21T12:06:05;20.82;51.95
69503;SHT31;56704;54.242;12.442;2022-09-21T12:09:00;20.83;51.44
69503;SHT31;56704;54.242;12.442;2022-09-21T12:11:35;21.03;51.19
69503;SHT31;56704;54.242;12.442;2022-09-21T12:14:12;21.23;51.58
69503;SHT31;56704;54.242;12.442;2022-09-21T12:16:46;21.74;49.50
69503;SHT31;56704;54.242;12.442;2022-09-21T12:19:22;22.28;46.91
69503;SHT31;56704;54.242;12.442;2022-09-21T12:21:57;22.67;47.03
69503;SHT31;56704;54.242;12.442;2022-09-21T12:24:28;22.22;46.99
69503;SHT31;56704;54.242;12.442;2022-09-21T12:27:00;22.09;49.54
69503;SHT31;56704;54.242;12.442;2022-09-21T12:29:33;22.12;48.80
69503;SHT31;56704;54.242;12.442;2022-09-21T12:32:06;21.75;48.22
69503;SHT31;56704;54.242;12.442;2022-09-21T12:34:40;21.54;48.64
69503;SHT31;56704;54.242;12.442;2022-09-21T12:37:12;21.67;48.70
69503;SHT31;56704;54.242;12.442;2022-09-21T12:39:43;21.67;50.12
69503;SHT31;56704;54.242;12.442;2022-09-21T12:42:23;21.55;48.70
69503;SHT31;56704;54.242;12.442;2022-09-21T12:44:54;21.40;50.28
69503;SHT31;56704;54.242;12.442;2022-09-21T12:47:26;21.34;48.08
69503;SHT31;56704;54.242;12.442;2022-09-21T12:50:00;21.13;49.98
69503;SHT31;56704;54.242;12.442;2022-09-21T12:52:27;21.27;49.27
69503;SHT31;56704;54.242;12.442;2022-09-21T12:55:00;21.38;51.22
69503;SHT31;56704;54.242;12.442;2022-09-21T12:57:39;21.57;47.17
69503;SHT31;56704;54.242;12.442;2022-09-21T13:00:12;21.43;48.82
69503;SHT31;56704;54.242;12.442;2022-09-21T13:02:42;21.48;47.84
69503;SHT31;56704;54.242;12.442;2022-09-21T13:05:14;21.53;47.61
69503;SHT31;56704;54.242;12.442;2022-09-21T13:08:01;21.34;47.32
69503;SHT31;56704;54.242;12.442;2022-09-21T13:10:40;21.08;49.36
69503;SHT31;56704;54.242;12.442;2022-09-21T13:13:17;20.97;48.47
69503;SHT31;56704;54.242;12.442;2022-09-21T13:15:46;20.97;48.54
69503;SHT31;56704;54.242;12.442;2022-09-21T13:18:22;20.90;47.85
69503;SHT31;56704;54.242;12.442;2022-09-21T13:20:50;20.89;47.61
69503;SHT31;56704;54.242;12.442;2022-09-21T13:23:22;21.04;47.85
69503;SHT31;56704;54.242;12.442;2022-09-21T13:25:59;20.92;46.80
69503;SHT31;56704;54.242;12.442;2022-09-21T13:28:40;20.66;49.49
69503;SHT31;56704;54.242;12.442;2022-09-21T13:31:27;20.61;49.13
69503;SHT31;56704;54.242;12.442;2022-09-21T13:34:06;20.38;49.59
69503;SHT31;56704;54.242;12.442;2022-09-21T13:36:43;20.56;50.59
69503;SHT31;56704;54.242;12.442;2022-09-21T13:39:16;20.87;49.44
69503;SHT31;56704;54.242;12.442;2022-09-21T13:41:43;20.99;47.60
69503;SHT31;56704;54.242;12.442;2022-09-21T13:44:34;20.99;47.89
69503;SHT31;56704;54.242;12.442;2022-09-21T13:47:01;21.37;49.40
69503;SHT31;56704;54.242;12.442;2022-09-21T13:49:47;21.53;46.40
69503;SHT31;56704;54.242;12.442;2022-09-21T13:52:25;21.38;46.34
69503;SHT31;56704;54.242;12.442;2022-09-21T13:54:54;21.43;47.47
69503;SHT31;56704;54.242;12.442;2022-09-21T13:57:26;21.28;44.34
69503;SHT31;56704;54.242;12.442;2022-09-21T14:00:06;20.76;47.29
69503;SHT31;56704;54.242;12.442;2022-09-21T14:02:36;20.61;47.98
69503;SHT31;56704;54.242;12.442;2022-09-21T14:05:07;20.59;49.21
69503;SHT31;56704;54.242;12.442;2022-09-21T14:07:43;20.68;49.64
69503;SHT31;56704;54.242;12.442;2022-09-21T14:10:18;20.79;47.79
69503;SHT31;56704;54.242;12.442;2022-09-21T14:12:46;20.95;49.08
69503;SHT31;56704;54.242;12.442;2022-09-21T14:15:36;21.00;47.54
69503;SHT31;56704;54.242;12.442;2022-09-21T14:21:13;20.76;47.48
69503;SHT31;56704;54.242;12.442;2022-09-21T14:27:00;20.37;47.49
69503;SHT31;56704;54.242;12.442;2022-09-21T14:29:31;20.17;48.24
69503;SHT31;56704;54.242;12.442;2022-09-21T14:32:02;20.04;47.43
69503;SHT31;56704;54.242;12.442;2022-09-21T14:34:31;20.01;45.96
69503;SHT31;56704;54.242;12.442;2022-09-21T14:37:03;19.94;48.03
69503;SHT31;56704;54.242;12.442;2022-09-21T14:39:33;19.91;48.24
69503;SHT31;56704;54.242;12.442;2022-09-21T14:42:06;19.87;47.91
69503;SHT31;56704;54.242;12.442;2022-09-21T14:44:37;19.83;48.19
69503;SHT31;56704;54.242;12.442;2022-09-21T14:47:24;19.97;47.60
69503;SHT31;56704;54.242;12.442;2022-09-21T14:53:20;19.83;47.91
69503;SHT31;56704;54.242;12.442;2022-09-21T14:56:12;19.71;48.41
69503;SHT31;56704;54.242;12.442;2022-09-21T14:58:56;19.74;50.48
69503;SHT31;56704;54.242;12.442;2022-09-21T15:01:35;19.91;47.47
69503;SHT31;56704;54.242;12.442;2022-09-21T15:04:23;19.74;48.28
69503;SHT31;56704;54.242;12.442;2022-09-21T15:06:55;19.66;50.11
69503;SHT31;56704;54.242;12.442;2022-09-21T15:09:57;19.63;50.16
69503;SHT31;56704;54.242;12.442;2022-09-21T15:12:51;19.52;48.17
69503;SHT31;56704;54.242;12.442;2022-09-21T15:15:35;19.38;49.00
69503;SHT31;56704;54.242;12.442;2022-09-21T15:18:14;19.35;49.74
69503;SHT31;56704;54.242;12.442;2022-09-21T15:20:51;19.30;47.76
69503;SHT31;56704;54.242;12.442;2022-09-21T15:23:19;19.25;49.06
69503;SHT31;56704;54.242;12.442;2022-09-21T15:25:53;19.38;47.78
69503;SHT31;56704;54.242;12.442;2022-09-21T15:28:23;19.40;47.59
69503;SHT31;56704;54.242;12.442;2022-09-21T15:30:55;19.47;47.74
69503;SHT31;56704;54.242;12.442;2022-09-21T15:33:23;19.62;47.63
69503;SHT31;56704;54.242;12.442;2022-09-21T15:35:50;19.60;46.87
69503;SHT31;56704;54.242;12.442;2022-09-21T15:38:29;19.73;48.80
69503;SHT31;56704;54.242;12.442;2022-09-21T15:40:56;19.73;49.02
69503;SHT31;56704;54.242;12.442;2022-09-21T15:43:23;19.67;49.04
69503;SHT31;56704;54.242;12.442;2022-09-21T15:45:52;19.56;49.45
69503;SHT31;56704;54.242;12.442;2022-09-21T15:48:20;19.59;49.22
69503;SHT31;56704;54.242;12.442;2022-09-21T15:50:50;19.57;48.22
69503;SHT31;56704;54.242;12.442;2022-09-21T15:53:21;19.59;49.29
69503;SHT31;56704;54.242;12.442;2022-09-21T15:55:48;19.46;50.28
69503;SHT31;56704;54.242;12.442;2022-09-21T15:58:24;19.35;52.13
69503;SHT31;56704;54.242;12.442;2022-09-21T16:00:54;19.09;53.01
69503;SHT31;56704;54.242;12.442;2022-09-21T16:03:23;18.89;54.14